Terminal Aerodrome Forecast
Issued by NWS

Home | Current Version | Previous Version | Text Only | Print | Product List | Glossary On
Versions: 1 2 3 4 5 6 7 8 9 10 11 12 13 14 15 16 17 18 19 20 21 22 23 24 25 26
000
FTUS41 KOKX 200600 AAA
TAFGON
TAF AMD
KGON 200642Z 2007/2106 VRB03KT 6SM BR SCT008
      TEMPO 2007/2011 2SM BR BKN008
     FM201300 14005KT 6SM HZ FEW020 SCT250
     FM201500 17008KT P6SM FEW050 SCT250
     FM210100 16004KT P6SM FEW050 SCT250=

USA.gov is the U.S. government's official web portal to all federal, state and local government web resources and services.